createdAt,value
2023-02-12T00:01:08.314Z,90.00
2023-02-12T00:03:35.746Z,89.90
2023-02-12T00:06:03.212Z,89.90
2023-02-12T00:08:30.136Z,89.80
2023-02-12T00:10:57.067Z,89.30
2023-02-12T00:13:24.195Z,89.70
2023-02-12T00:15:51.196Z,89.00
2023-02-12T00:18:18.206Z,89.50
2023-02-12T00:20:45.169Z,89.80
2023-02-12T00:23:12.240Z,90.00
2023-02-12T00:25:40.906Z,90.10
2023-02-12T00:28:08.020Z,89.70
2023-02-12T05:33:11.956Z,90.70
2023-02-12T05:35:38.888Z,90.70
2023-02-12T05:38:05.832Z,90.90
2023-02-12T05:40:32.890Z,90.90
2023-02-12T05:42:59.922Z,91.10
2023-02-12T05:45:28.023Z,91.00
2023-02-12T05:47:55.902Z,91.10
2023-02-12T05:50:22.940Z,91.50
2023-02-12T05:52:49.899Z,91.70
2023-02-12T05:55:16.850Z,91.60
2023-02-12T05:57:43.743Z,91.80
2023-02-12T06:00:11.586Z,91.50
2023-02-12T06:02:38.613Z,91.40
2023-02-12T06:05:05.816Z,91.50
2023-02-12T06:07:32.738Z,91.30
2023-02-12T06:09:59.768Z,91.30
2023-02-12T06:12:26.713Z,91.10
2023-02-12T06:14:53.675Z,91.30
2023-02-12T06:17:20.579Z,91.50
2023-02-12T06:19:47.635Z,91.40
2023-02-12T06:22:14.556Z,91.30
2023-02-12T06:24:41.613Z,91.40
2023-02-12T06:27:08.558Z,91.60
2023-02-12T06:29:35.545Z,91.90
2023-02-12T06:32:02.610Z,92.40
2023-02-12T06:34:29.661Z,92.60
2023-02-12T06:36:56.732Z,92.20
2023-02-12T06:39:23.803Z,92.40
2023-02-12T06:41:50.843Z,92.40
2023-02-12T06:44:17.824Z,92.70
2023-02-12T06:46:44.900Z,92.70
2023-02-12T06:49:12.479Z,92.70
2023-02-12T06:51:41.265Z,92.70
2023-02-12T06:54:15.544Z,92.80
2023-02-12T06:56:42.738Z,92.70
2023-02-12T06:59:12.221Z,92.80
2023-02-12T07:01:39.161Z,92.80
2023-02-12T07:04:06.188Z,93.20
2023-02-12T07:06:34.086Z,93.20
2023-02-12T07:09:01.267Z,93.60
2023-02-12T07:11:29.428Z,93.60
2023-02-12T07:13:56.462Z,94.10
2023-02-12T07:16:23.564Z,94.10
2023-02-12T07:18:50.861Z,93.80
2023-02-12T07:21:18.580Z,93.60
2023-02-12T07:23:51.296Z,93.00
2023-02-12T07:26:19.232Z,93.20
2023-02-12T07:28:46.230Z,93.60
2023-02-12T07:31:14.328Z,94.20
2023-02-12T07:33:41.961Z,94.20
2023-02-12T07:36:10.350Z,93.90
2023-02-12T07:38:39.813Z,93.90
2023-02-12T07:41:10.502Z,94.00
2023-02-12T07:43:38.255Z,94.20
2023-02-12T07:46:12.547Z,94.10
2023-02-12T07:48:39.751Z,94.10
2023-02-12T07:51:11.350Z,94.30
2023-02-12T07:53:38.489Z,94.50
2023-02-12T07:56:10.241Z,95.10
2023-02-12T07:58:37.544Z,95.00
2023-02-12T08:01:16.451Z,94.80
2023-02-12T08:03:43.551Z,94.70
2023-02-12T08:06:15.447Z,95.00
2023-02-12T08:08:42.550Z,96.20
2023-02-12T08:11:10.730Z,96.80
2023-02-12T08:13:38.287Z,97.20
2023-02-12T08:16:06.743Z,97.50
2023-02-12T08:18:33.948Z,97.90
2023-02-12T08:21:01.753Z,97.90
2023-02-12T08:23:28.678Z,97.80
2023-02-12T08:25:55.867Z,98.00
2023-02-12T08:28:23.287Z,98.00
2023-02-12T08:30:50.307Z,98.40
2023-02-12T08:33:17.352Z,98.60
2023-02-12T08:35:44.322Z,98.60
2023-02-12T08:38:11.219Z,98.70
2023-02-12T08:40:38.194Z,98.90
2023-02-12T08:43:05.463Z,99.00
2023-02-12T08:45:32.982Z,99.20
2023-02-12T08:47:59.869Z,99.30
2023-02-12T08:50:26.844Z,99.40
2023-02-12T08:52:53.804Z,99.40
2023-02-12T08:55:20.731Z,99.40
2023-02-12T08:57:47.651Z,99.40
2023-02-12T09:00:14.769Z,99.40
2023-02-12T09:02:41.866Z,99.40
2023-02-12T09:05:08.936Z,99.40
2023-02-12T09:07:35.903Z,99.40
2023-02-12T09:10:02.928Z,99.40
2023-02-12T09:12:29.900Z,99.40
2023-02-12T09:14:56.813Z,99.40
2023-02-12T09:17:27.364Z,99.40
2023-02-12T09:19:54.548Z,99.30
2023-02-12T09:22:21.494Z,99.10
2023-02-12T09:24:48.448Z,99.20
2023-02-12T09:27:15.380Z,99.10
2023-02-12T09:29:42.302Z,99.30
2023-02-12T09:32:09.722Z,99.30
2023-02-12T09:34:36.775Z,99.30
2023-02-12T09:37:03.706Z,99.20
2023-02-12T09:39:30.820Z,99.20
2023-02-12T09:42:24.049Z,99.20
2023-02-12T09:45:07.715Z,99.40
2023-02-12T09:47:56.358Z,99.00
2023-02-12T09:50:41.444Z,99.00
2023-02-12T09:53:12.350Z,98.90
2023-02-12T09:55:40.004Z,99.10
2023-02-12T09:58:16.362Z,98.90
2023-02-12T10:00:44.637Z,98.70
2023-02-12T10:03:13.089Z,98.90
2023-02-12T10:05:42.753Z,98.80
2023-02-12T10:08:27.844Z,98.90
2023-02-12T10:10:57.908Z,99.00
2023-02-12T10:13:33.519Z,98.90
2023-02-12T10:16:12.663Z,98.90
2023-02-12T10:19:02.751Z,98.90
2023-02-12T10:21:44.787Z,99.00
2023-02-12T10:24:14.550Z,99.10
2023-02-12T10:26:43.523Z,99.10
2023-02-12T10:29:19.355Z,98.90
2023-02-12T10:31:49.607Z,98.80
2023-02-12T10:34:18.471Z,98.80
2023-02-12T10:36:46.623Z,98.80
2023-02-12T10:39:23.939Z,98.80
2023-02-12T10:41:53.681Z,98.70
2023-02-12T10:44:20.840Z,98.70
2023-02-12T10:46:47.780Z,98.60
2023-02-12T10:49:16.372Z,98.60
2023-02-12T10:52:12.493Z,98.60
2023-02-12T10:54:46.569Z,98.60
2023-02-12T10:57:30.816Z,98.50
2023-02-12T11:00:14.459Z,98.40
2023-02-12T11:02:58.705Z,98.50
2023-02-12T11:05:28.890Z,98.70
2023-02-12T11:07:57.619Z,98.30
2023-02-12T11:10:29.869Z,98.30
2023-02-12T11:12:58.260Z,98.30
2023-02-12T11:15:27.041Z,98.20
2023-02-12T11:18:02.725Z,98.30
2023-02-12T11:20:38.431Z,98.20
2023-02-12T11:23:06.793Z,98.20
2023-02-12T11:25:37.522Z,98.10
2023-02-12T11:28:17.504Z,98.20
2023-02-12T11:30:55.086Z,98.20
2023-02-12T11:33:24.138Z,98.20
2023-02-12T11:35:55.557Z,98.20
2023-02-12T11:38:33.062Z,98.20
2023-02-12T11:41:02.059Z,98.10
2023-02-12T11:43:30.963Z,98.00
2023-02-12T11:45:59.370Z,98.00
2023-02-12T11:48:29.353Z,98.00
2023-02-12T11:50:57.853Z,98.00
2023-02-12T11:53:35.897Z,98.10
2023-02-12T11:56:05.181Z,98.20
2023-02-12T11:58:32.576Z,98.20
2023-02-12T12:01:19.498Z,98.40
2023-02-12T12:03:53.886Z,98.30
2023-02-12T12:06:26.943Z,98.30
2023-02-12T12:09:05.294Z,98.10
2023-02-12T12:11:50.140Z,97.90
2023-02-12T12:14:19.788Z,97.80
2023-02-12T12:17:08.197Z,97.80
2023-02-12T12:19:52.705Z,97.60
2023-02-12T12:22:31.706Z,97.50
2023-02-12T12:25:06.382Z,97.40
2023-02-12T12:27:58.649Z,97.50
2023-02-12T12:30:35.855Z,97.60
2023-02-12T12:33:05.520Z,97.50
2023-02-12T12:35:39.244Z,97.60
2023-02-12T12:38:15.030Z,97.70
2023-02-12T12:40:55.458Z,97.60
2023-02-12T12:43:33.026Z,97.50
2023-02-12T12:46:23.790Z,97.50
2023-02-12T12:49:06.097Z,97.50
2023-02-12T12:51:35.892Z,97.60
2023-02-12T12:54:13.678Z,97.50
2023-02-12T12:56:40.555Z,97.60
2023-02-12T12:59:07.431Z,97.50
2023-02-12T13:01:34.286Z,97.50
2023-02-12T13:04:10.333Z,97.50
2023-02-12T13:06:53.042Z,97.40
2023-02-12T13:09:34.340Z,97.60
2023-02-12T13:12:01.377Z,97.50
2023-02-12T13:14:37.682Z,97.50
2023-02-12T13:17:20.555Z,97.50
2023-02-12T13:19:55.781Z,97.50
2023-02-12T13:22:31.647Z,97.50
2023-02-12T13:25:05.050Z,97.50
2023-02-12T13:27:37.480Z,97.50
2023-02-12T13:30:17.855Z,97.50
2023-02-12T13:32:47.468Z,97.40
2023-02-12T13:35:22.114Z,97.50
2023-02-12T13:37:51.335Z,97.40
2023-02-12T13:40:19.704Z,97.40
2023-02-12T13:42:46.570Z,97.40
2023-02-12T13:45:13.561Z,97.40
2023-02-12T13:47:59.127Z,97.50
2023-02-12T13:50:41.913Z,97.10
2023-02-12T13:53:27.845Z,97.00
2023-02-12T13:56:14.464Z,96.80
2023-02-12T13:58:47.347Z,97.00
2023-02-12T14:01:34.296Z,96.90
2023-02-12T14:04:19.495Z,96.90
2023-02-12T14:07:00.947Z,96.80
2023-02-12T14:09:44.889Z,96.80
2023-02-12T14:12:23.760Z,96.80
2023-02-12T14:14:52.264Z,96.80
2023-02-12T14:17:28.270Z,96.90
2023-02-12T14:19:55.597Z,96.90
2023-02-12T14:22:25.548Z,96.80
2023-02-12T14:24:53.820Z,96.70
2023-02-12T14:27:43.876Z,96.60
2023-02-12T14:30:10.842Z,96.70
2023-02-12T14:32:58.011Z,96.60
2023-02-12T14:35:32.575Z,96.60
2023-02-12T14:38:01.035Z,96.70
2023-02-12T14:40:30.838Z,96.70
2023-02-12T14:42:57.815Z,96.70
2023-02-12T14:45:29.753Z,96.80
2023-02-12T14:47:56.952Z,96.70
2023-02-12T14:50:25.968Z,96.60
2023-02-12T14:52:59.368Z,96.50
2023-02-12T14:55:29.905Z,96.50
2023-02-12T14:57:58.414Z,96.50
2023-02-12T15:00:34.146Z,96.50
2023-02-12T15:03:17.391Z,96.40
2023-02-12T15:05:49.876Z,96.70
2023-02-12T15:08:36.796Z,96.40
2023-02-12T15:11:03.763Z,96.50
2023-02-12T15:13:43.166Z,96.50
2023-02-12T15:16:13.029Z,96.40
2023-02-12T15:18:48.013Z,96.50
2023-02-12T15:21:23.325Z,96.40
2023-02-12T15:24:00.175Z,96.30
2023-02-12T15:26:28.652Z,96.20
2023-02-12T15:28:55.695Z,96.30
2023-02-12T15:31:25.949Z,96.30
2023-02-12T15:33:54.513Z,96.30
2023-02-12T15:36:24.066Z,96.30
2023-02-12T15:38:58.904Z,96.40
2023-02-12T15:41:31.687Z,96.40
2023-02-12T15:43:59.078Z,96.50
2023-02-12T15:46:26.057Z,96.50
2023-02-12T15:48:55.559Z,96.50
2023-02-12T15:51:38.400Z,96.40
2023-02-12T15:54:06.486Z,96.30
2023-02-12T15:56:36.140Z,96.30
2023-02-12T15:59:03.670Z,96.40
2023-02-12T16:01:32.088Z,96.50
2023-02-12T16:04:00.487Z,96.40
2023-02-12T16:06:28.910Z,96.30
2023-02-12T16:08:58.766Z,96.30
2023-02-12T16:11:26.135Z,96.30
2023-02-12T16:13:55.513Z,96.30
2023-02-12T16:16:24.704Z,96.30
2023-02-12T16:19:14.216Z,96.30
2023-02-12T16:21:41.285Z,96.20
2023-02-12T16:24:26.766Z,96.30
2023-02-12T16:26:54.340Z,96.20
2023-02-12T16:29:21.494Z,96.10
2023-02-12T16:32:00.383Z,96.20
2023-02-12T16:34:31.865Z,96.10
2023-02-12T16:36:58.935Z,96.10
2023-02-12T16:39:44.443Z,95.90
2023-02-12T16:42:15.099Z,95.90
2023-02-12T16:44:42.425Z,96.10
2023-02-12T16:47:19.317Z,95.90
2023-02-12T16:49:59.844Z,96.10
2023-02-12T16:52:39.874Z,96.20
2023-02-12T16:55:12.970Z,96.50
2023-02-12T16:57:39.972Z,96.50
2023-02-12T17:00:08.319Z,96.40
2023-02-12T17:02:36.352Z,96.60
2023-02-12T17:05:06.993Z,96.70
2023-02-12T17:07:34.165Z,96.70
2023-02-12T17:10:01.114Z,96.60
2023-02-12T17:12:28.344Z,96.50
2023-02-12T17:14:58.268Z,96.40
2023-02-12T17:17:25.211Z,96.50
2023-02-12T17:19:53.236Z,96.30
2023-02-12T17:22:23.165Z,96.20
2023-02-12T17:24:51.625Z,96.20
2023-02-12T17:27:19.076Z,96.30
2023-02-12T17:29:46.041Z,96.40
2023-02-12T17:32:13.062Z,96.30
2023-02-12T17:34:48.930Z,96.60
2023-02-12T17:37:17.063Z,96.70
2023-02-12T17:39:43.988Z,96.50
2023-02-12T17:42:12.100Z,96.40
2023-02-12T17:44:39.960Z,96.50
2023-02-12T17:47:06.933Z,96.50
2023-02-12T17:49:35.433Z,96.40
2023-02-12T17:52:02.493Z,96.30
2023-02-12T17:54:29.409Z,96.40
2023-02-12T17:56:56.414Z,96.90
2023-02-12T17:59:23.432Z,96.50
2023-02-12T18:01:50.383Z,96.30
2023-02-12T18:04:17.507Z,96.20
2023-02-12T18:06:44.454Z,96.10
2023-02-12T18:09:11.480Z,96.20
2023-02-12T18:11:40.262Z,96.20
2023-02-12T18:14:07.187Z,96.40
2023-02-12T18:16:34.962Z,96.30
2023-02-12T18:19:04.270Z,96.20
2023-02-12T18:21:31.603Z,96.20
2023-02-12T18:23:58.571Z,96.20
2023-02-12T18:26:25.482Z,96.10
2023-02-12T18:28:53.827Z,95.90
2023-02-12T18:31:21.045Z,96.20
2023-02-12T18:33:48.037Z,96.30
2023-02-12T18:36:16.951Z,96.30
2023-02-12T18:38:44.554Z,96.20
2023-02-12T18:41:12.986Z,95.60
2023-02-12T18:43:40.028Z,95.80
2023-02-12T18:46:14.596Z,96.20
2023-02-12T18:48:42.102Z,96.00
2023-02-12T18:51:10.309Z,96.60
2023-02-12T18:53:37.309Z,96.40
2023-02-12T18:56:05.375Z,96.10
2023-02-12T18:58:32.529Z,95.90
2023-02-12T19:00:59.921Z,96.00
2023-02-12T19:03:27.431Z,96.00
2023-02-12T19:06:01.912Z,96.20
2023-02-12T19:08:28.827Z,96.00
2023-02-12T19:10:56.052Z,95.80
2023-02-12T19:13:23.316Z,96.00
2023-02-12T19:15:50.566Z,95.90
2023-02-12T19:18:17.943Z,96.20
2023-02-12T19:20:45.477Z,96.50
2023-02-12T19:23:12.426Z,96.50
2023-02-12T19:25:45.590Z,96.80
2023-02-12T19:28:13.046Z,96.50
2023-02-12T19:30:40.950Z,96.50
2023-02-12T19:33:08.101Z,96.70
2023-02-12T19:35:35.056Z,96.80
2023-02-12T19:38:02.871Z,96.80
2023-02-12T19:40:29.834Z,97.40
2023-02-12T19:42:56.757Z,96.90
2023-02-12T19:45:23.797Z,96.90
2023-02-12T19:47:51.726Z,97.10
2023-02-12T19:50:18.766Z,96.90
2023-02-12T19:52:45.777Z,97.00
2023-02-12T19:55:12.675Z,96.70
2023-02-12T19:57:40.930Z,96.70
2023-02-12T20:00:08.185Z,96.70
2023-02-12T20:02:35.169Z,96.80
2023-02-12T20:05:02.174Z,96.90
2023-02-12T20:07:29.144Z,96.90
2023-02-12T20:09:56.069Z,97.10
2023-02-12T20:12:23.055Z,96.70
2023-02-12T20:14:49.993Z,96.80
2023-02-12T20:17:18.508Z,96.70
2023-02-12T20:19:45.474Z,96.50
2023-02-12T20:22:12.396Z,96.40
2023-02-12T20:24:39.528Z,96.40
2023-02-12T20:27:06.449Z,96.40
2023-02-12T20:29:33.433Z,96.00
2023-02-12T20:32:00.521Z,96.20
2023-02-12T20:34:27.507Z,96.30
2023-02-12T20:36:54.412Z,96.50
2023-02-12T20:39:21.442Z,97.00
2023-02-12T20:41:48.819Z,96.80
2023-02-12T20:44:20.107Z,96.70
2023-02-12T20:46:48.118Z,97.00
2023-02-12T20:49:16.153Z,97.30
2023-02-12T20:51:43.477Z,97.50
2023-02-12T20:54:10.521Z,97.50
2023-02-12T20:56:37.906Z,96.50
2023-02-12T20:59:05.571Z,96.80
2023-02-12T21:01:34.716Z,96.30
2023-02-12T21:04:03.319Z,96.50
2023-02-12T21:06:30.829Z,96.50
2023-02-12T21:08:57.785Z,96.60
2023-02-12T21:11:26.122Z,97.00
2023-02-12T21:13:59.282Z,97.40
2023-02-12T21:16:34.154Z,97.00
2023-02-12T21:19:01.297Z,96.70
2023-02-12T21:21:29.933Z,96.70
2023-02-12T21:23:57.779Z,96.90
2023-02-12T21:26:25.948Z,96.80
2023-02-12T21:28:53.434Z,96.70
2023-02-12T21:31:43.707Z,96.70
2023-02-12T21:34:13.252Z,96.90
2023-02-12T21:36:41.357Z,96.90
2023-02-12T21:39:10.873Z,97.00
2023-02-12T21:41:39.200Z,97.20
2023-02-12T21:44:08.091Z,97.20
2023-02-12T21:46:35.873Z,97.20
2023-02-12T21:49:03.370Z,97.10
2023-02-12T21:51:32.049Z,96.90
2023-02-12T21:54:00.093Z,96.90
2023-02-12T21:56:27.132Z,96.70
2023-02-12T21:58:54.659Z,96.90
2023-02-12T22:01:23.085Z,96.90
2023-02-12T22:03:50.607Z,97.10
2023-02-12T22:06:19.098Z,97.20
2023-02-12T22:08:46.389Z,97.10
2023-02-12T22:11:13.563Z,97.10
2023-02-12T22:13:40.802Z,97.10
2023-02-12T22:16:26.805Z,96.90
2023-02-12T22:18:57.482Z,97.00
2023-02-12T22:21:25.320Z,97.00
2023-02-12T22:23:52.675Z,97.00
2023-02-12T22:26:23.701Z,97.00
2023-02-12T22:28:52.277Z,97.00
2023-02-12T22:31:21.918Z,96.90
2023-02-12T22:33:49.511Z,96.90
2023-02-12T22:36:18.032Z,97.00
2023-02-12T22:38:45.020Z,97.00
2023-02-12T22:41:12.038Z,97.00
2023-02-12T22:43:40.031Z,97.00
2023-02-12T22:46:07.916Z,97.20
2023-02-12T22:48:34.891Z,97.20
2023-02-12T22:51:07.448Z,97.20
2023-02-12T22:53:34.547Z,97.20
2023-02-12T22:56:05.443Z,97.20
2023-02-12T22:58:33.869Z,97.20
2023-02-12T23:01:14.115Z,97.10
2023-02-12T23:03:41.549Z,96.60
2023-02-12T23:06:11.065Z,96.70
2023-02-12T23:08:38.023Z,96.40
2023-02-12T23:11:07.079Z,96.50
2023-02-12T23:13:36.311Z,96.60
2023-02-12T23:16:03.687Z,96.70
2023-02-12T23:18:31.092Z,96.90
2023-02-12T23:20:58.693Z,97.00
2023-02-12T23:23:25.960Z,97.00
2023-02-12T23:25:54.412Z,97.00
2023-02-12T23:28:21.698Z,97.00
2023-02-12T23:30:49.233Z,97.10
2023-02-12T23:33:16.190Z,97.10
2023-02-12T23:35:43.678Z,97.10
2023-02-12T23:38:10.605Z,97.10
2023-02-12T23:40:37.681Z,97.00
2023-02-12T23:43:04.696Z,97.10
2023-02-12T23:45:31.610Z,97.00
2023-02-12T23:47:58.967Z,96.80
2023-02-12T23:50:26.224Z,97.10
2023-02-12T23:52:53.249Z,97.10
2023-02-12T23:55:20.331Z,97.10
2023-02-12T23:57:47.823Z,97.10
